Darstellungsparameter: Aktuell verwendete Einstellungen:
Skalierung der Graphiken ... ?
xyx+y,   Skalierungsfaktor:      Skalierung: Modus: x, Faktor: 1
Darstellungszeitraum ... ?
Vom - - bis: - -   Zeitraum: 10.05.2018 - 10.05.2018
Min/Max/Avg-Anzeige ... ?
Zeige MMA aktuell
Zeige MMA Monat
Zeige MMA alles
Zeige --A aktuell
Zeige --A Monat
Zeige --A alles
Keine MMA-Anzeige
MMA:
Keine MMA-Graphiken
MMA-Basis: 10.05.2018 - 10.05.2018
Quicknavigation für Darstellung... ?
Tage:      1T, 2T, 3T, 5T -1T -2T -3T -5T +1T +2T +3T +5T
Wochen: 1W, 2W, 3W -1W -2W -3W +1W +2W +3W
Monate: 1M, 3M, 6M -1M -3M -6M +1M +3M +6M
Jahre:    1J, 3J, 5J, 10J -1J -3J -5J -10J +1J +3J +5J +10J
Nutze für die Darstellung ... ?
Originaldaten oder Mittelwerte auf ...
Stundenbasis Tagesbasis Wochenbasis
Monatsbasis Jahresbasis      Datenbasis: Original-Daten
Darstellen als:
Statistik (Auto) Statistik J:M      Darstellung:
Zur Graphik,    zurück zur Übersicht aller Sensoren.
 
Tabellarische Datenbersicht: ?
 
Sensor: Nr:Datum:Temp:Feuchte:Taupunkt:
Aussen-T/F 1 10-05-2018 00:00:00 14.7 C 82 % 11.66 C
2 10-05-2018 00:05:00 14.6 C 82 % 11.56 C
3 10-05-2018 00:10:00 14.4 C 83 % 11.55 C
4 10-05-2018 00:15:00 14.3 C 83 % 11.45 C
5 10-05-2018 00:20:00 14.2 C 83 % 11.36 C
6 10-05-2018 00:25:00 14.2 C 84 % 11.54 C
7 10-05-2018 00:30:00 14.1 C 84 % 11.44 C
8 10-05-2018 00:35:00 14.1 C 84 % 11.44 C
9 10-05-2018 00:40:00 13.9 C 85 % 11.42 C
10 10-05-2018 00:45:00 13.9 C 85 % 11.42 C
11 10-05-2018 00:50:00 13.8 C 85 % 11.32 C
12 10-05-2018 00:55:00 13.7 C 85 % 11.23 C
13 10-05-2018 01:00:00 13.6 C 86 % 11.3 C
14 10-05-2018 01:05:00 13.6 C 86 % 11.3 C
15 10-05-2018 01:10:00 13.6 C 87 % 11.48 C
16 10-05-2018 01:15:00 13.7 C 86 % 11.4 C
17 10-05-2018 01:20:00 13.7 C 86 % 11.4 C
18 10-05-2018 01:25:00 13.7 C 87 % 11.58 C
19 10-05-2018 01:30:00 13.7 C 87 % 11.58 C
20 10-05-2018 01:35:00 13.6 C 87 % 11.48 C
21 10-05-2018 01:40:00 13.6 C 87 % 11.48 C
22 10-05-2018 01:45:00 13.6 C 87 % 11.48 C
23 10-05-2018 01:50:00 13.7 C 87 % 11.58 C
24 10-05-2018 01:55:00 13.8 C 87 % 11.68 C
25 10-05-2018 02:00:00 13.8 C 87 % 11.68 C
Sensor: Nr:Datum:Temp:Feuchte:Taupunkt:
Aussen-T/F 26 10-05-2018 02:05:00 13.8 C 87 % 11.68 C
27 10-05-2018 02:10:00 13.8 C 87 % 11.68 C
28 10-05-2018 02:15:00 13.8 C 87 % 11.68 C
29 10-05-2018 02:20:00 13.9 C 88 % 11.95 C
30 10-05-2018 02:25:00 13.9 C 87 % 11.77 C
31 10-05-2018 02:30:00 13.8 C 87 % 11.68 C
32 10-05-2018 02:35:00 13.8 C 87 % 11.68 C
33 10-05-2018 02:40:00 13.7 C 87 % 11.58 C
34 10-05-2018 02:45:00 13.7 C 88 % 11.75 C
35 10-05-2018 02:50:00 13.7 C 88 % 11.75 C
36 10-05-2018 02:55:00 13.7 C 88 % 11.75 C
37 10-05-2018 03:00:00 13.7 C 89 % 11.92 C
38 10-05-2018 03:05:00 13.7 C 89 % 11.92 C
39 10-05-2018 03:10:00 13.8 C 89 % 12.02 C
40 10-05-2018 03:15:00 14 C 89 % 12.22 C
41 10-05-2018 03:20:00 14.2 C 89 % 12.41 C
42 10-05-2018 03:25:00 14.4 C 89 % 12.61 C
43 10-05-2018 03:30:00 14.6 C 89 % 12.81 C
44 10-05-2018 03:35:00 14.8 C 88 % 12.83 C
45 10-05-2018 03:40:00 15.1 C 87 % 12.95 C
46 10-05-2018 03:45:00 15.4 C 86 % 13.07 C
47 10-05-2018 03:50:00 15.6 C 85 % 13.09 C
48 10-05-2018 03:55:00 15.7 C 85 % 13.19 C
49 10-05-2018 04:00:00 15.7 C 85 % 13.19 C
50 10-05-2018 04:05:00 15.7 C 84 % 13.01 C
Sensor: Nr:Datum:Temp:Feuchte:Taupunkt:
Aussen-T/F 51 10-05-2018 04:10:00 15.9 C 83 % 13.02 C
52 10-05-2018 04:15:00 16 C 82 % 12.93 C
53 10-05-2018 04:20:00 16.1 C 82 % 13.03 C
54 10-05-2018 04:25:00 16.1 C 82 % 13.03 C
55 10-05-2018 04:30:00 16.1 C 82 % 13.03 C
56 10-05-2018 04:35:00 16 C 82 % 12.93 C
57 10-05-2018 04:40:00 15.9 C 82 % 12.83 C
58 10-05-2018 04:45:00 15.9 C 82 % 12.83 C
59 10-05-2018 04:50:00 15.8 C 83 % 12.92 C
60 10-05-2018 04:55:00 15.7 C 83 % 12.82 C
61 10-05-2018 05:00:00 15.7 C 83 % 12.82 C
62 10-05-2018 05:05:00 15.6 C 82 % 12.54 C
63 10-05-2018 05:10:00 15.6 C 82 % 12.54 C
64 10-05-2018 05:15:00 15.6 C 82 % 12.54 C
65 10-05-2018 05:20:00 15.6 C 82 % 12.54 C
66 10-05-2018 05:25:00 15.6 C 81 % 12.35 C
67 10-05-2018 05:30:00 15.7 C 80 % 12.26 C
68 10-05-2018 05:35:00 15.7 C 80 % 12.26 C
69 10-05-2018 05:40:00 15.7 C 80 % 12.26 C
70 10-05-2018 05:45:00 15.6 C 80 % 12.16 C
71 10-05-2018 05:50:00 15.6 C 80 % 12.16 C
72 10-05-2018 05:55:00 15.5 C 80 % 12.07 C
73 10-05-2018 06:00:00 15.4 C 80 % 11.97 C
74 10-05-2018 06:05:00 15.4 C 80 % 11.97 C
75 10-05-2018 06:10:00 15.4 C 80 % 11.97 C
Sensor: Nr:Datum:Temp:Feuchte:Taupunkt:
Aussen-T/F 76 10-05-2018 06:15:00 15.3 C 80 % 11.87 C
77 10-05-2018 06:20:00 15.3 C 81 % 12.06 C
78 10-05-2018 06:25:00 15.3 C 81 % 12.06 C
79 10-05-2018 06:30:00 15.2 C 81 % 11.96 C
80 10-05-2018 06:35:00 15.2 C 81 % 11.96 C
81 10-05-2018 06:40:00 15.2 C 81 % 11.96 C
82 10-05-2018 06:45:00 15.2 C 81 % 11.96 C
83 10-05-2018 06:50:00 15.2 C 81 % 11.96 C
84 10-05-2018 06:55:00 15.2 C 81 % 11.96 C
85 10-05-2018 07:00:00 15.2 C 81 % 11.96 C
86 10-05-2018 07:05:00 15.2 C 81 % 11.96 C
87 10-05-2018 07:10:00 15.2 C 81 % 11.96 C
88 10-05-2018 07:15:00 15.2 C 81 % 11.96 C
89 10-05-2018 07:20:00 15.2 C 81 % 11.96 C
90 10-05-2018 07:25:00 15.2 C 81 % 11.96 C
91 10-05-2018 07:30:00 15.2 C 80 % 11.78 C
92 10-05-2018 07:35:00 15.1 C 80 % 11.68 C
93 10-05-2018 07:40:00 15.1 C 80 % 11.68 C
94 10-05-2018 07:45:00 15.1 C 81 % 11.87 C
95 10-05-2018 07:50:00 15.1 C 81 % 11.87 C
96 10-05-2018 07:55:00 15 C 81 % 11.77 C
97 10-05-2018 08:00:00 15 C 81 % 11.77 C
98 10-05-2018 08:05:00 14.9 C 81 % 11.67 C
99 10-05-2018 08:10:00 14.8 C 81 % 11.57 C
100 10-05-2018 08:15:00 14.8 C 82 % 11.76 C
Sensor: Nr:Datum:Temp:Feuchte:Taupunkt:
Aussen-T/F 101 10-05-2018 08:20:00 14.7 C 81 % 11.48 C
102 10-05-2018 08:25:00 14.6 C 81 % 11.38 C
103 10-05-2018 08:30:00 14.6 C 81 % 11.38 C
104 10-05-2018 08:35:00 14.5 C 80 % 11.09 C
105 10-05-2018 08:40:00 14.4 C 80 % 11 C
106 10-05-2018 08:45:00 14.4 C 80 % 11 C
107 10-05-2018 08:50:00 14.4 C 80 % 11 C
108 10-05-2018 08:55:00 14.4 C 81 % 11.18 C
109 10-05-2018 09:00:00 14.5 C 80 % 11.09 C
110 10-05-2018 09:05:00 14.5 C 80 % 11.09 C
111 10-05-2018 09:10:00 14.6 C 81 % 11.38 C
112 10-05-2018 09:15:00 14.6 C 80 % 11.19 C
113 10-05-2018 09:20:00 14.6 C 80 % 11.19 C
114 10-05-2018 09:25:00 14.6 C 81 % 11.38 C
115 10-05-2018 09:30:00 14.7 C 81 % 11.48 C
116 10-05-2018 09:35:00 14.8 C 80 % 11.39 C
117 10-05-2018 09:40:00 14.8 C 81 % 11.57 C
118 10-05-2018 09:45:00 14.8 C 80 % 11.39 C
119 10-05-2018 09:50:00 14.9 C 80 % 11.48 C
120 10-05-2018 09:55:00 14.9 C 80 % 11.48 C
121 10-05-2018 10:00:00 14.9 C 80 % 11.48 C
122 10-05-2018 10:05:00 14.9 C 80 % 11.48 C
123 10-05-2018 10:10:00 14.8 C 80 % 11.39 C
124 10-05-2018 10:15:00 14.9 C 80 % 11.48 C
125 10-05-2018 10:20:00 14.9 C 80 % 11.48 C
Sensor: Nr:Datum:Temp:Feuchte:Taupunkt:
Aussen-T/F 126 10-05-2018 10:25:00 14.9 C 81 % 11.67 C
127 10-05-2018 10:30:00 14.9 C 81 % 11.67 C
128 10-05-2018 10:35:00 14.9 C 82 % 11.86 C
129 10-05-2018 10:40:00 15 C 83 % 12.14 C
130 10-05-2018 10:45:00 14.9 C 81 % 11.67 C
131 10-05-2018 10:50:00 15 C 82 % 11.95 C
132 10-05-2018 10:55:00 14.9 C 81 % 11.67 C
133 10-05-2018 11:00:00 14.9 C 81 % 11.67 C
134 10-05-2018 11:05:00 14.9 C 82 % 11.86 C
135 10-05-2018 11:10:00 14.9 C 83 % 12.04 C
136 10-05-2018 11:15:00 14.8 C 84 % 12.12 C
137 10-05-2018 11:20:00 14.8 C 84 % 12.12 C
138 10-05-2018 11:25:00 14.7 C 85 % 12.21 C
139 10-05-2018 11:30:00 14.7 C 86 % 12.38 C
140 10-05-2018 11:35:00 14.4 C 87 % 12.27 C
141 10-05-2018 11:40:00 14.2 C 87 % 12.07 C
142 10-05-2018 11:45:00 14.1 C 88 % 12.14 C
143 10-05-2018 11:50:00 13.9 C 90 % 12.29 C
144 10-05-2018 11:55:00 13.8 C 90 % 12.19 C
145 10-05-2018 12:00:00 13.7 C 91 % 12.26 C
146 10-05-2018 12:05:00 13.6 C 92 % 12.33 C
147 10-05-2018 12:10:00 13.6 C 92 % 12.33 C
148 10-05-2018 12:15:00 13.7 C 92 % 12.42 C
149 10-05-2018 12:20:00 13.7 C 92 % 12.42 C
150 10-05-2018 12:25:00 13.7 C 93 % 12.59 C
Sensor: Nr:Datum:Temp:Feuchte:Taupunkt:
Aussen-T/F 151 10-05-2018 12:30:00 13.6 C 93 % 12.49 C
152 10-05-2018 12:35:00 13.5 C 93 % 12.39 C
153 10-05-2018 12:40:00 13.4 C 93 % 12.29 C
154 10-05-2018 12:45:00 13.4 C 93 % 12.29 C
155 10-05-2018 12:50:00 13.4 C 93 % 12.29 C
156 10-05-2018 12:55:00 13.4 C 93 % 12.29 C
157 10-05-2018 13:00:00 13.3 C 93 % 12.19 C
158 10-05-2018 13:05:00 13.4 C 94 % 12.45 C
159 10-05-2018 13:10:00 13.3 C 94 % 12.36 C
160 10-05-2018 13:15:00 13.4 C 94 % 12.45 C
161 10-05-2018 13:20:00 13.4 C 94 % 12.45 C
162 10-05-2018 13:25:00 13.4 C 94 % 12.45 C
163 10-05-2018 13:30:00 13.4 C 94 % 12.45 C
164 10-05-2018 13:35:00 13.4 C 94 % 12.45 C
165 10-05-2018 13:40:00 13.2 C 93 % 12.09 C
166 10-05-2018 13:45:00 13.1 C 93 % 11.99 C
167 10-05-2018 13:50:00 12.9 C 94 % 11.96 C
168 10-05-2018 13:55:00 12.9 C 94 % 11.96 C
169 10-05-2018 14:00:00 12.9 C 94 % 11.96 C
170 10-05-2018 14:05:00 12.9 C 94 % 11.96 C
171 10-05-2018 14:10:00 12.9 C 94 % 11.96 C
172 10-05-2018 14:15:00 12.8 C 94 % 11.86 C
173 10-05-2018 14:20:00 12.7 C 94 % 11.76 C
174 10-05-2018 14:25:00 12.7 C 94 % 11.76 C
175 10-05-2018 14:30:00 12.8 C 95 % 12.02 C
Sensor: Nr:Datum:Temp:Feuchte:Taupunkt:
Aussen-T/F 176 10-05-2018 14:35:00 12.8 C 95 % 12.02 C
177 10-05-2018 14:40:00 12.8 C 95 % 12.02 C
178 10-05-2018 14:45:00 12.8 C 95 % 12.02 C
179 10-05-2018 14:50:00 12.8 C 95 % 12.02 C
180 10-05-2018 14:55:00 12.8 C 95 % 12.02 C
181 10-05-2018 15:00:00 12.9 C 95 % 12.12 C
182 10-05-2018 15:05:00 12.6 C 94 % 11.66 C
183 10-05-2018 15:10:00 12.3 C 93 % 11.2 C
184 10-05-2018 15:15:00 12.2 C 92 % 10.94 C
185 10-05-2018 15:20:00 12.3 C 93 % 11.2 C
186 10-05-2018 15:25:00 12.5 C 93 % 11.4 C
187 10-05-2018 15:30:00 12.6 C 94 % 11.66 C
188 10-05-2018 15:35:00 12.7 C 93 % 11.6 C
189 10-05-2018 15:40:00 12.8 C 93 % 11.7 C
190 10-05-2018 15:45:00 13 C 94 % 12.06 C
191 10-05-2018 15:50:00 13.2 C 94 % 12.26 C
192 10-05-2018 15:55:00 13.2 C 94 % 12.26 C
193 10-05-2018 16:00:00 13.2 C 92 % 11.93 C
194 10-05-2018 16:05:00 13.2 C 91 % 11.76 C
195 10-05-2018 16:10:00 13.4 C 92 % 12.13 C
196 10-05-2018 16:15:00 13.5 C 91 % 12.06 C
197 10-05-2018 16:20:00 13.7 C 89 % 11.92 C
198 10-05-2018 16:25:00 13.8 C 90 % 12.19 C
199 10-05-2018 16:30:00 14.1 C 91 % 12.65 C
200 10-05-2018 16:35:00 14 C 89 % 12.22 C
Sensor: Nr:Datum:Temp:Feuchte:Taupunkt:
Aussen-T/F 201 10-05-2018 16:40:00 14.1 C 88 % 12.14 C
202 10-05-2018 16:45:00 14.2 C 91 % 12.75 C
203 10-05-2018 16:50:00 14.4 C 90 % 12.78 C
204 10-05-2018 16:55:00 14.6 C 92 % 13.32 C
205 10-05-2018 17:00:00 14.8 C 92 % 13.51 C
206 10-05-2018 17:05:00 14.9 C 91 % 13.44 C
207 10-05-2018 17:10:00 15 C 90 % 13.37 C
208 10-05-2018 17:15:00 14.9 C 90 % 13.28 C
209 10-05-2018 17:20:00 14.9 C 90 % 13.28 C
210 10-05-2018 17:25:00 14.8 C 90 % 13.18 C
211 10-05-2018 17:30:00 14.7 C 89 % 12.91 C
212 10-05-2018 17:35:00 14.6 C 88 % 12.64 C
213 10-05-2018 17:40:00 14.5 C 88 % 12.54 C
214 10-05-2018 17:45:00 14.6 C 90 % 12.98 C
215 10-05-2018 17:50:00 14.4 C 88 % 12.44 C
216 10-05-2018 17:55:00 14.3 C 87 % 12.17 C
217 10-05-2018 18:00:00 14.4 C 89 % 12.61 C
218 10-05-2018 18:05:00 14.4 C 88 % 12.44 C
219 10-05-2018 18:10:00 14.6 C 90 % 12.98 C
220 10-05-2018 18:15:00 14.6 C 89 % 12.81 C
221 10-05-2018 18:20:00 14.8 C 89 % 13.01 C
222 10-05-2018 18:25:00 14.9 C 85 % 12.4 C
223 10-05-2018 18:30:00 15.3 C 83 % 12.43 C
224 10-05-2018 18:35:00 15.8 C 86 % 13.46 C
225 10-05-2018 18:40:00 16.2 C 80 % 12.75 C
Sensor: Nr:Datum:Temp:Feuchte:Taupunkt:
Aussen-T/F 226 10-05-2018 18:45:00 16.6 C 81 % 13.33 C
227 10-05-2018 18:50:00 16.7 C 82 % 13.61 C
228 10-05-2018 18:55:00 16.6 C 81 % 13.33 C
229 10-05-2018 19:00:00 16.4 C 83 % 13.51 C
230 10-05-2018 19:05:00 16.2 C 84 % 13.5 C
231 10-05-2018 19:10:00 15.8 C 85 % 13.28 C
232 10-05-2018 19:15:00 15.6 C 85 % 13.09 C
233 10-05-2018 19:20:00 15.3 C 86 % 12.97 C
234 10-05-2018 19:25:00 15.2 C 87 % 13.05 C
235 10-05-2018 19:30:00 15 C 87 % 12.86 C
236 10-05-2018 19:35:00 14.8 C 88 % 12.83 C
237 10-05-2018 19:40:00 14.8 C 89 % 13.01 C
238 10-05-2018 19:45:00 14.7 C 89 % 12.91 C
239 10-05-2018 19:50:00 14.6 C 89 % 12.81 C
240 10-05-2018 19:55:00 14.5 C 89 % 12.71 C
241 10-05-2018 20:00:00 14.4 C 89 % 12.61 C
242 10-05-2018 20:05:00 14.2 C 89 % 12.41 C
243 10-05-2018 20:10:00 14.1 C 89 % 12.32 C
244 10-05-2018 20:15:00 13.9 C 90 % 12.29 C
245 10-05-2018 20:20:00 13.8 C 90 % 12.19 C
246 10-05-2018 20:25:00 13.7 C 90 % 12.09 C
247 10-05-2018 20:30:00 13.6 C 91 % 12.16 C
248 10-05-2018 20:35:00 13.5 C 91 % 12.06 C
249 10-05-2018 20:40:00 13.4 C 91 % 11.96 C
250 10-05-2018 20:45:00 13.2 C 89 % 11.43 C
Sensor: Nr:Datum:Temp:Feuchte:Taupunkt:
Aussen-T/F 251 10-05-2018 20:50:00 13.2 C 90 % 11.6 C
252 10-05-2018 20:55:00 13.2 C 90 % 11.6 C
253 10-05-2018 21:00:00 13.1 C 90 % 11.5 C
254 10-05-2018 21:05:00 13 C 90 % 11.4 C
255 10-05-2018 21:10:00 12.9 C 90 % 11.3 C
256 10-05-2018 21:15:00 12.8 C 90 % 11.2 C
257 10-05-2018 21:20:00 12.7 C 90 % 11.1 C
258 10-05-2018 21:25:00 12.6 C 90 % 11 C
259 10-05-2018 21:30:00 12.5 C 91 % 11.07 C
260 10-05-2018 21:35:00 12.4 C 91 % 10.97 C
261 10-05-2018 21:40:00 12.3 C 91 % 10.87 C
262 10-05-2018 21:45:00 12.2 C 91 % 10.78 C
263 10-05-2018 21:50:00 12.2 C 91 % 10.78 C
264 10-05-2018 21:55:00 12.1 C 91 % 10.68 C
265 10-05-2018 22:00:00 11.9 C 91 % 10.48 C
266 10-05-2018 22:05:00 11.9 C 91 % 10.48 C
267 10-05-2018 22:10:00 11.8 C 91 % 10.38 C
268 10-05-2018 22:15:00 11.8 C 91 % 10.38 C
269 10-05-2018 22:20:00 11.8 C 92 % 10.54 C
270 10-05-2018 22:25:00 11.8 C 92 % 10.54 C
271 10-05-2018 22:30:00 11.7 C 92 % 10.44 C
272 10-05-2018 22:35:00 11.7 C 92 % 10.44 C
273 10-05-2018 22:40:00 11.7 C 92 % 10.44 C
274 10-05-2018 22:45:00 11.8 C 93 % 10.71 C
275 10-05-2018 22:50:00 11.8 C 93 % 10.71 C
Sensor: Nr:Datum:Temp:Feuchte:Taupunkt:
Aussen-T/F 276 10-05-2018 22:55:00 11.8 C 93 % 10.71 C
277 10-05-2018 23:00:00 11.8 C 93 % 10.71 C
278 10-05-2018 23:05:00 11.8 C 93 % 10.71 C
279 10-05-2018 23:10:00 11.8 C 93 % 10.71 C
280 10-05-2018 23:15:00 11.8 C 93 % 10.71 C
281 10-05-2018 23:20:00 11.8 C 93 % 10.71 C
282 10-05-2018 23:25:00 11.8 C 93 % 10.71 C
283 10-05-2018 23:30:00 11.8 C 93 % 10.71 C
284 10-05-2018 23:35:00 11.8 C 93 % 10.71 C
285 10-05-2018 23:40:00 11.8 C 93 % 10.71 C
286 10-05-2018 23:45:00 11.8 C 93 % 10.71 C
287 10-05-2018 23:50:00 11.8 C 93 % 10.71 C
288 10-05-2018 23:55:00 11.7 C 93 % 10.61 C

Legende:
   Min
   Max


Maximal/Minimal-Werte vom 10.05.2018 - 10.05.2018

Sensor Min Max Avg
Temp
(Aussen-T/F)
11.7 °C
10-05-2018  22:30:00
16.7 °C
10-05-2018  18:50:00
14.09 °C
Feuchte
(Aussen-T/F)
80 %
10-05-2018  05:30:00
95 %
10-05-2018  14:30:00
87.07 %
Taupunkt
(Aussen-T/F)
10.38 C
10-05-2018  22:10:00
13.61 C
10-05-2018  18:50:00
11.91 C

Die Daten stammen von einer Davis Vantage Pro 2 Wetter-Station und werden unter Linux mit der Software wview2wettercgi und aufbereitet. Alle Angaben erfolgen ohne Gewähr für ihre Vollständigkeit oder Richtigkeit.
Kontakt: Rainer Krienke krienke@uni-koblenz.de . Meine Webseiten an der Uni Koblenz oder privat.
Version: $Revision: 0.78 $